Time;durP1;ratioP1;P1;durP2;ratioP2;P2;SDS_P1;SDS_P2;PMS_P1;PMS_P2;Temp;Humidity;BMP_temperature;BMP_pressure;BME280_temperature;BME280_humidity;BME280_pressure;Samples;Min_cycle;Max_cycle;Signal;HPM_P1;HPM_P2
2022/09/27 00:01:16;;;;;;;1.63;0.75;;;11.20;99.90;;;;;;6062831;23;20045;-81
2022/09/27 00:03:43;;;;;;;2.85;0.85;;;11.20;99.90;;;;;;6063215;23;20064;-82
2022/09/27 00:06:24;;;;;;;3.15;1.17;;;11.20;99.90;;;;;;6086692;23;20336;-81
2022/09/27 00:08:51;;;;;;;3.15;0.88;;;11.20;99.90;;;;;;6062582;23;20018;-81
2022/09/27 00:11:35;;;;;;;0.93;0.57;;;11.20;99.90;;;;;;6086927;23;20033;-81
2022/09/27 00:14:02;;;;;;;2.17;0.70;;;11.20;99.90;;;;;;6089440;23;20407;-82
2022/09/27 00:16:32;;;;;;;2.58;0.82;;;11.20;99.90;;;;;;6060597;23;20033;-82
2022/09/27 00:19:00;;;;;;;1.58;0.70;;;11.20;99.90;;;;;;6085511;23;20335;-82
2022/09/27 00:21:29;;;;;;;4.00;1.08;;;11.20;99.90;;;;;;6086905;23;20344;-80
2022/09/27 00:23:56;;;;;;;2.47;0.65;;;11.20;99.90;;;;;;6086727;23;20118;-80
2022/09/27 00:26:23;;;;;;;2.78;0.98;;;11.20;99.90;;;;;;6087363;23;20040;-82
2022/09/27 00:28:50;;;;;;;2.63;0.75;;;11.20;99.90;;;;;;6063290;23;20048;-80
2022/09/27 00:31:24;;;;;;;3.88;0.95;;;11.20;99.90;;;;;;6062818;23;20571;-79
2022/09/27 00:33:52;;;;;;;4.15;1.10;;;11.20;99.90;;;;;;6087301;23;20105;-80
2022/09/27 00:36:19;;;;;;;3.45;0.95;;;11.20;99.90;;;;;;6086520;23;20024;-80
2022/09/27 00:38:46;;;;;;;2.17;0.80;;;11.20;99.90;;;;;;6086019;23;20029;-80
2022/09/27 00:41:21;;;;;;;3.15;0.88;;;11.20;99.90;;;;;;6063629;23;20080;-83
2022/09/27 00:44:14;;;;;;;1.65;0.73;;;11.20;99.90;;;;;;6089349;23;20018;-80
2022/09/27 00:46:44;;;;;;;1.85;0.70;;;11.20;99.90;;;;;;6092803;23;20433;-80
2022/09/27 00:49:18;;;;;;;0.88;0.30;;;11.20;99.90;;;;;;6089684;23;20460;-80
2022/09/27 00:51:46;;;;;;;1.80;0.50;;;11.20;99.90;;;;;;6088217;23;20070;-80
2022/09/27 00:54:14;;;;;;;0.90;0.47;;;11.20;99.90;;;;;;6088803;23;20029;-80
2022/09/27 00:56:41;;;;;;;1.35;0.50;;;11.20;99.90;;;;;;6088322;23;20045;-81
2022/09/27 00:59:19;;;;;;;0.70;0.30;;;11.20;99.90;;;;;;6089710;23;20049;-82
2022/09/27 01:01:46;;;;;;;2.45;0.68;;;11.20;99.90;;;;;;6088087;23;20097;-82
2022/09/27 01:04:14;;;;;;;3.13;0.88;;;11.30;99.90;;;;;;6088138;23;20731;-82
2022/09/27 01:06:40;;;;;;;2.78;0.77;;;11.20;99.90;;;;;;6088720;23;20022;-82
2022/09/27 01:09:08;;;;;;;1.42;0.63;;;11.20;99.90;;;;;;6067875;23;20033;-82
2022/09/27 01:11:38;;;;;;;1.83;0.65;;;11.20;99.90;;;;;;6068785;23;20104;-82
2022/09/27 01:14:25;;;;;;;1.77;0.40;;;11.20;99.90;;;;;;6119517;23;20101;-82
2022/09/27 01:17:17;;;;;;;2.15;0.73;;;11.20;99.90;;;;;;6091820;23;20045;-82
2022/09/27 01:19:58;;;;;;;1.33;0.50;;;11.10;99.90;;;;;;6118465;23;20057;-82
2022/09/27 01:22:43;;;;;;;3.00;1.02;;;11.20;99.90;;;;;;6091904;23;20033;-82
2022/09/27 01:25:18;;;;;;;1.92;0.75;;;11.20;99.90;;;;;;6091957;23;20041;-82
2022/09/27 01:28:09;;;;;;;1.42;0.60;;;11.20;99.90;;;;;;6068039;23;20100;-82
2022/09/27 01:30:51;;;;;;;1.33;0.50;;;11.20;99.90;;;;;;6069065;23;20018;-81
2022/09/27 01:33:33;;;;;;;1.65;0.60;;;11.20;99.90;;;;;;6117599;23;20096;-82
2022/09/27 01:36:17;;;;;;;1.75;0.80;;;11.10;99.90;;;;;;6090661;23;20769;-81
2022/09/27 01:39:04;;;;;;;0.70;0.30;;;11.20;99.90;;;;;;6068014;23;20064;-81
2022/09/27 01:41:35;;;;;;;0.80;0.30;;;11.20;99.90;;;;;;6098542;23;20029;-81
2022/09/27 01:44:41;;;;;;;3.58;0.60;;;11.10;99.90;;;;;;6071107;23;20025;-81
2022/09/27 01:47:11;;;;;;;1.45;0.50;;;11.10;99.90;;;;;;6102178;23;20029;-80
2022/09/27 01:49:43;;;;;;;1.30;0.60;;;11.10;99.90;;;;;;6091957;23;20454;-80
2022/09/27 01:52:10;;;;;;;0.60;0.35;;;11.10;99.90;;;;;;6091344;23;20390;-80
2022/09/27 01:54:48;;;;;;;0.50;0.30;;;11.10;99.90;;;;;;6092809;23;20092;-80
2022/09/27 01:57:18;;;;;;;0.90;0.60;;;11.00;99.90;;;;;;6092460;23;20029;-81
2022/09/27 01:59:48;;;;;;;1.27;0.47;;;11.00;99.90;;;;;;6068680;23;20029;-80
2022/09/27 02:02:15;;;;;;;0.80;0.30;;;11.00;99.90;;;;;;6091775;23;20096;-80
2022/09/27 02:04:43;;;;;;;0.70;0.30;;;11.00;99.90;;;;;;6068332;23;20077;-80
2022/09/27 02:07:12;;;;;;;1.80;1.05;;;10.90;99.90;;;;;;6091697;23;20026;-80
2022/09/27 02:10:04;;;;;;;1.40;0.40;;;10.90;99.90;;;;;;6092580;23;20116;-80
2022/09/27 02:12:34;;;;;;;3.15;0.93;;;10.80;99.90;;;;;;6092522;23;20022;-80
2022/09/27 02:15:04;;;;;;;0.98;0.60;;;10.70;99.90;;;;;;6092440;23;20018;-80
2022/09/27 02:17:43;;;;;;;1.90;0.50;;;10.60;99.90;;;;;;6091395;23;20038;-80
2022/09/27 02:20:25;;;;;;;1.00;0.40;;;10.60;99.90;;;;;;6118089;23;20156;-80
2022/09/27 02:22:55;;;;;;;1.05;0.57;;;10.50;99.90;;;;;;6091964;23;20064;-80
2022/09/27 02:25:35;;;;;;;1.25;0.60;;;10.50;99.90;;;;;;6092147;23;20022;-80
2022/09/27 02:28:27;;;;;;;1.48;0.65;;;10.50;99.90;;;;;;6068136;23;20022;-80
2022/09/27 02:30:54;;;;;;;2.03;0.80;;;10.50;99.90;;;;;;6092403;23;20443;-80
2022/09/27 02:33:25;;;;;;;3.85;1.05;;;10.50;99.90;;;;;;6091256;23;20478;-81
2022/09/27 02:35:52;;;;;;;1.60;0.60;;;10.50;99.90;;;;;;6068702;23;20120;-81
2022/09/27 02:38:19;;;;;;;0.90;0.52;;;10.50;99.90;;;;;;6091696;23;20032;-80
2022/09/27 02:40:46;;;;;;;0.60;0.30;;;10.50;99.90;;;;;;6068647;23;20124;-80
2022/09/27 02:43:14;;;;;;;3.60;0.70;;;10.50;99.90;;;;;;6068937;23;20032;-79
2022/09/27 02:46:03;;;;;;;0.77;0.40;;;10.50;99.90;;;;;;6069219;23;20022;-80
2022/09/27 02:48:35;;;;;;;1.60;0.60;;;10.50;99.90;;;;;;6091640;23;20069;-84
2022/09/27 02:51:08;;;;;;;0.75;0.43;;;10.50;99.90;;;;;;6117819;23;20029;-80
2022/09/27 02:54:18;;;;;;;0.63;0.30;;;10.50;99.90;;;;;;6117247;23;20100;-82
2022/09/27 02:57:18;;;;;;;1.90;0.40;;;10.50;99.90;;;;;;6027461;23;20023;-80
2022/09/27 03:00:01;;;;;;;2.03;0.98;;;10.50;99.90;;;;;;6028363;23;20034;-81
2022/09/27 03:02:40;;;;;;;1.25;0.57;;;10.50;99.90;;;;;;6057002;23;20026;-80
2022/09/27 03:05:10;;;;;;;1.75;0.50;;;10.40;99.90;;;;;;6091902;23;20383;-81
2022/09/27 03:07:37;;;;;;;2.35;0.40;;;10.30;99.90;;;;;;6092013;23;20339;-81
2022/09/27 03:10:04;;;;;;;0.32;0.25;;;10.20;99.90;;;;;;6092508;23;20022;-81
2022/09/27 03:12:32;;;;;;;0.90;0.32;;;10.20;99.90;;;;;;6068392;23;20621;-81
2022/09/27 03:14:59;;;;;;;1.13;0.60;;;10.10;99.90;;;;;;6093046;23;20028;-81
2022/09/27 03:17:26;;;;;;;0.75;0.30;;;10.00;99.90;;;;;;6091162;23;20025;-81
2022/09/27 03:19:52;;;;;;;1.38;0.47;;;9.90;99.90;;;;;;6091835;23;20033;-81
2022/09/27 03:22:19;;;;;;;2.05;0.60;;;9.80;99.90;;;;;;6090596;23;20021;-81
2022/09/27 03:24:48;;;;;;;1.55;0.63;;;9.80;99.90;;;;;;6068850;23;20022;-81
2022/09/27 03:27:15;;;;;;;0.65;0.40;;;9.70;99.90;;;;;;6117209;23;20032;-80
2022/09/27 03:29:42;;;;;;;1.02;0.30;;;9.70;99.90;;;;;;6068489;23;20112;-81
2022/09/27 03:32:09;;;;;;;0.50;0.30;;;9.60;99.90;;;;;;6091449;23;20022;-81
2022/09/27 03:34:36;;;;;;;0.65;0.50;;;9.60;99.90;;;;;;6068159;23;20104;-80
2022/09/27 03:37:03;;;;;;;0.68;0.38;;;9.60;99.90;;;;;;6067560;23;20018;-81
2022/09/27 03:39:30;;;;;;;2.33;0.80;;;9.50;99.90;;;;;;6067845;23;20022;-80
2022/09/27 03:41:57;;;;;;;1.13;0.45;;;9.50;99.90;;;;;;6091994;23;20021;-80
2022/09/27 03:44:24;;;;;;;0.88;0.32;;;9.50;99.90;;;;;;6091938;23;20024;-81
2022/09/27 03:46:51;;;;;;;0.68;0.30;;;9.40;99.90;;;;;;6091381;23;20130;-81
2022/09/27 03:49:18;;;;;;;0.68;0.40;;;9.40;99.90;;;;;;6091424;23;20026;-82
2022/09/27 03:51:45;;;;;;;1.25;0.50;;;9.30;99.90;;;;;;6091447;23;20057;-81
2022/09/27 03:54:11;;;;;;;2.40;0.50;;;9.30;99.90;;;;;;6067474;23;20018;-80
2022/09/27 03:56:39;;;;;;;1.25;0.50;;;9.30;99.90;;;;;;6068367;23;20026;-81
2022/09/27 03:59:06;;;;;;;0.38;0.38;;;9.20;99.90;;;;;;6067890;23;20092;-81
2022/09/27 04:01:34;;;;;;;0.55;0.40;;;9.20;99.90;;;;;;6090968;23;20101;-81
2022/09/27 04:04:02;;;;;;;2.22;1.00;;;9.10;99.90;;;;;;6067701;23;20038;-81
2022/09/27 04:06:34;;;;;;;1.55;0.52;;;9.10;99.90;;;;;;6074916;23;20108;-81
2022/09/27 04:09:01;;;;;;;1.15;0.70;;;9.10;99.90;;;;;;6069656;23;20453;-81
2022/09/27 04:11:28;;;;;;;1.27;0.30;;;9.00;99.90;;;;;;6068438;23;20141;-81
2022/09/27 04:13:55;;;;;;;1.15;0.65;;;9.10;99.90;;;;;;6092150;23;20478;-81
2022/09/27 04:16:24;;;;;;;1.17;0.43;;;9.00;99.90;;;;;;6117023;23;20048;-82
2022/09/27 04:18:51;;;;;;;1.70;0.50;;;9.00;99.90;;;;;;6091930;23;20097;-82
2022/09/27 04:21:19;;;;;;;1.55;0.47;;;9.00;99.90;;;;;;6092044;23;20025;-81
2022/09/27 04:23:46;;;;;;;0.88;0.60;;;9.00;99.90;;;;;;6091400;23;20018;-82
2022/09/27 04:26:13;;;;;;;0.93;0.50;;;8.90;99.90;;;;;;6092032;23;20102;-82
2022/09/27 04:28:39;;;;;;;0.70;0.30;;;8.90;99.90;;;;;;6067287;23;20014;-82
2022/09/27 04:31:06;;;;;;;1.15;0.45;;;8.90;99.90;;;;;;6091750;23;20021;-80
2022/09/27 04:33:33;;;;;;;1.73;0.70;;;8.90;99.90;;;;;;6067396;23;20129;-81
2022/09/27 04:38:46;;;;;;;1.27;0.50;;;8.90;99.90;;;;;;6116549;23;20029;-82
2022/09/27 04:41:14;;;;;;;2.95;0.65;;;8.90;99.90;;;;;;6117534;23;20076;-81
2022/09/27 04:43:40;;;;;;;1.17;0.52;;;9.00;99.90;;;;;;6091441;23;20436;-80
2022/09/27 04:46:08;;;;;;;2.33;0.98;;;9.00;99.90;;;;;;6091982;23;20105;-80
2022/09/27 04:48:36;;;;;;;2.40;0.70;;;9.10;99.90;;;;;;6116027;23;20034;-80
2022/09/27 04:51:03;;;;;;;1.35;0.40;;;9.20;99.90;;;;;;6089109;23;20022;-80
2022/09/27 04:53:29;;;;;;;3.03;0.90;;;9.20;99.90;;;;;;6087666;23;20022;-80
2022/09/27 04:55:57;;;;;;;2.25;0.60;;;9.20;99.90;;;;;;6063413;23;20324;-80
2022/09/27 04:58:24;;;;;;;1.05;0.40;;;9.30;99.90;;;;;;6087039;23;20022;-80
2022/09/27 05:00:54;;;;;;;0.57;0.35;;;9.30;99.90;;;;;;6114653;23;20055;-80
2022/09/27 05:03:22;;;;;;;2.88;0.77;;;9.40;99.90;;;;;;6084523;23;20022;-79
2022/09/27 05:05:48;;;;;;;2.72;0.77;;;9.40;99.90;;;;;;6085724;23;20026;-80
2022/09/27 05:08:15;;;;;;;2.50;0.65;;;9.40;99.90;;;;;;6085073;23;20022;-81
2022/09/27 05:10:42;;;;;;;1.25;0.52;;;9.40;99.90;;;;;;6089846;23;20474;-79
2022/09/27 05:13:08;;;;;;;1.55;0.60;;;9.30;99.90;;;;;;6063598;23;20018;-80
2022/09/27 05:15:35;;;;;;;1.83;0.45;;;9.30;99.90;;;;;;6062007;23;20097;-80
2022/09/27 05:18:02;;;;;;;0.60;0.40;;;9.30;99.90;;;;;;6085716;23;20101;-80
2022/09/27 05:20:29;;;;;;;1.02;0.50;;;9.30;99.90;;;;;;6088450;23;20177;-80
2022/09/27 05:22:56;;;;;;;1.70;0.77;;;9.30;99.90;;;;;;6062636;23;20022;-80
2022/09/27 05:25:22;;;;;;;2.85;0.57;;;9.30;99.90;;;;;;6089683;23;20064;-80
2022/09/27 05:27:50;;;;;;;0.80;0.40;;;9.30;99.90;;;;;;6089306;23;20022;-80
2022/09/27 05:30:17;;;;;;;1.65;0.50;;;9.40;99.90;;;;;;6091224;23;20026;-80
2022/09/27 05:32:45;;;;;;;2.42;0.50;;;9.40;99.90;;;;;;6064690;23;20097;-80
2022/09/27 05:35:12;;;;;;;0.73;0.30;;;9.40;99.90;;;;;;6091612;23;20053;-81
2022/09/27 05:37:39;;;;;;;0.43;0.40;;;9.50;99.90;;;;;;6116675;23;20022;-81
2022/09/27 05:40:07;;;;;;;1.20;0.50;;;9.50;99.90;;;;;;6116575;23;20026;-81
2022/09/27 05:42:54;;;;;;;1.30;0.65;;;9.50;99.90;;;;;;6075222;23;20026;-79
2022/09/27 05:45:21;;;;;;;0.52;0.30;;;9.50;99.90;;;;;;6068741;23;20022;-79
2022/09/27 05:47:55;;;;;;;1.45;0.47;;;9.50;99.90;;;;;;6091227;23;20030;-80
2022/09/27 05:50:25;;;;;;;1.52;0.50;;;9.60;99.90;;;;;;6068719;23;20033;-80
2022/09/27 05:52:52;;;;;;;0.93;0.40;;;9.60;99.90;;;;;;6084050;23;20128;-79
2022/09/27 05:55:19;;;;;;;0.45;0.20;;;9.60;99.90;;;;;;6084304;23;20111;-80
2022/09/27 05:58:02;;;;;;;1.65;0.80;;;9.60;99.90;;;;;;6084845;23;20022;-80
2022/09/27 06:00:29;;;;;;;1.40;0.57;;;9.70;99.90;;;;;;6084055;23;20200;-80
2022/09/27 06:02:59;;;;;;;1.75;0.65;;;9.60;99.90;;;;;;6082405;23;20030;-81
2022/09/27 06:05:28;;;;;;;0.90;0.30;;;9.70;99.90;;;;;;6059790;23;20435;-82
2022/09/27 06:07:59;;;;;;;2.30;0.60;;;9.70;99.90;;;;;;6058481;23;20139;-82
2022/09/27 06:10:26;;;;;;;0.63;0.40;;;9.80;99.90;;;;;;6083390;23;20096;-82
2022/09/27 06:12:54;;;;;;;0.98;0.30;;;9.80;99.90;;;;;;6059021;23;20061;-82
2022/09/27 06:15:21;;;;;;;1.23;0.43;;;9.90;99.90;;;;;;6109368;23;20140;-82
2022/09/27 06:17:47;;;;;;;1.13;0.65;;;9.90;99.90;;;;;;6059338;23;20022;-82
2022/09/27 06:20:16;;;;;;;0.93;0.40;;;9.90;99.90;;;;;;6109650;23;20081;-83
2022/09/27 06:22:45;;;;;;;1.88;0.52;;;10.00;99.90;;;;;;6109824;23;20018;-82
2022/09/27 06:25:12;;;;;;;2.13;0.57;;;10.00;99.90;;;;;;6107985;23;20068;-82
2022/09/27 06:27:39;;;;;;;1.60;0.70;;;10.00;99.90;;;;;;6081276;23;20422;-83
2022/09/27 06:30:06;;;;;;;0.68;0.30;;;10.00;99.90;;;;;;6082904;23;20026;-83
2022/09/27 06:32:33;;;;;;;0.70;0.30;;;10.10;99.90;;;;;;6080872;23;20433;-83
2022/09/27 06:34:59;;;;;;;0.90;0.43;;;10.10;99.90;;;;;;6082567;23;20034;-82
2022/09/27 06:37:26;;;;;;;0.93;0.40;;;10.10;99.90;;;;;;6082216;23;20402;-83
2022/09/27 06:39:54;;;;;;;1.50;0.77;;;10.20;99.90;;;;;;6083456;23;20026;-82
2022/09/27 06:42:21;;;;;;;2.72;0.70;;;10.20;99.90;;;;;;6084095;23;20025;-83
2022/09/27 06:44:48;;;;;;;1.67;0.65;;;10.20;99.90;;;;;;6060120;23;20022;-83
2022/09/27 06:47:16;;;;;;;1.23;0.40;;;10.20;99.90;;;;;;6084240;23;20354;-83
2022/09/27 06:49:43;;;;;;;0.93;0.38;;;10.30;99.90;;;;;;6060807;23;20443;-83
2022/09/27 06:52:10;;;;;;;1.02;0.38;;;10.30;99.90;;;;;;6082679;23;20049;-83
2022/09/27 06:54:37;;;;;;;1.15;0.50;;;10.30;99.90;;;;;;6084786;23;20109;-83
2022/09/27 06:57:04;;;;;;;1.10;0.68;;;10.30;99.90;;;;;;6109316;23;20326;-83
2022/09/27 07:02:17;;;;;;;2.10;0.60;;;10.40;99.90;;;;;;6087545;23;20112;-83
2022/09/27 07:04:44;;;;;;;2.13;0.60;;;10.40;99.90;;;;;;6083774;23;20034;-83
2022/09/27 07:07:12;;;;;;;2.50;0.77;;;10.50;99.90;;;;;;6059702;23;20025;-83
2022/09/27 07:09:39;;;;;;;1.85;0.57;;;10.50;99.90;;;;;;6083178;23;20174;-83
2022/09/27 07:12:06;;;;;;;0.80;0.52;;;10.50;99.90;;;;;;6084261;23;20057;-83
2022/09/27 07:14:34;;;;;;;1.83;0.70;;;10.50;99.90;;;;;;6083817;23;20018;-83
2022/09/27 07:17:00;;;;;;;1.98;0.75;;;10.60;99.90;;;;;;6083047;23;20030;-83
2022/09/27 07:19:27;;;;;;;2.38;0.80;;;10.60;99.90;;;;;;6060017;23;20029;-83
2022/09/27 07:21:54;;;;;;;1.30;0.50;;;10.60;99.90;;;;;;6082194;23;20108;-82
2022/09/27 07:24:21;;;;;;;0.98;0.60;;;10.60;99.90;;;;;;6083841;23;20026;-83
2022/09/27 07:26:48;;;;;;;1.20;0.60;;;10.70;99.90;;;;;;6083808;23;20026;-83
2022/09/27 07:29:15;;;;;;;2.08;0.93;;;10.70;99.90;;;;;;6109398;23;20356;-83
2022/09/27 07:31:42;;;;;;;1.15;0.60;;;10.80;99.90;;;;;;6109122;23;20089;-83
2022/09/27 07:34:09;;;;;;;1.13;0.57;;;10.90;99.90;;;;;;6109307;23;20021;-82
2022/09/27 07:36:36;;;;;;;2.42;0.93;;;10.90;99.90;;;;;;6083352;23;20026;-83
2022/09/27 07:39:03;;;;;;;2.55;0.80;;;10.90;99.90;;;;;;6109972;23;20263;-82
2022/09/27 07:41:30;;;;;;;2.40;1.05;;;11.00;99.90;;;;;;6083638;23;20116;-83
2022/09/27 07:43:58;;;;;;;2.15;0.70;;;11.00;99.90;;;;;;6082689;23;20232;-82
2022/09/27 07:46:25;;;;;;;0.38;0.30;;;11.10;99.90;;;;;;6058554;23;20022;-83
2022/09/27 07:48:51;;;;;;;0.50;0.43;;;11.10;99.90;;;;;;6083976;23;20022;-82
2022/09/27 07:51:18;;;;;;;0.63;0.40;;;11.10;99.90;;;;;;6109065;23;20030;-82
2022/09/27 07:53:45;;;;;;;0.98;0.40;;;11.20;99.90;;;;;;6108503;23;20030;-83
2022/09/27 07:56:12;;;;;;;0.75;0.57;;;11.30;99.90;;;;;;6107162;23;20022;-82
2022/09/27 07:58:39;;;;;;;1.88;0.70;;;11.30;99.90;;;;;;6083515;23;20018;-83
2022/09/27 08:01:06;;;;;;;1.15;0.55;;;11.40;99.90;;;;;;6059807;23;20037;-82
2022/09/27 08:03:33;;;;;;;0.60;0.55;;;11.50;99.90;;;;;;6083004;23;20877;-82
2022/09/27 08:06:02;;;;;;;2.45;1.17;;;11.60;99.90;;;;;;6083257;23;20486;-83
2022/09/27 08:08:28;;;;;;;1.85;0.90;;;11.60;99.90;;;;;;6081821;23;20026;-82
2022/09/27 08:10:55;;;;;;;1.75;0.68;;;11.50;99.90;;;;;;6059833;23;20257;-83
2022/09/27 08:13:22;;;;;;;1.83;0.88;;;11.50;99.90;;;;;;6082818;23;20026;-83
2022/09/27 08:15:51;;;;;;;2.13;0.88;;;11.60;99.90;;;;;;6083689;23;20045;-83
2022/09/27 08:18:20;;;;;;;2.00;0.88;;;11.70;99.90;;;;;;6083168;23;20034;-83
2022/09/27 08:20:47;;;;;;;2.35;0.85;;;11.80;99.90;;;;;;6059338;23;20469;-83
2022/09/27 08:23:14;;;;;;;1.02;0.75;;;11.80;99.90;;;;;;6082818;23;20347;-83
2022/09/27 08:25:41;;;;;;;2.70;0.95;;;11.90;99.90;;;;;;6109599;23;20022;-83
2022/09/27 08:28:08;;;;;;;2.90;0.80;;;12.00;99.90;;;;;;6083331;23;20110;-83
2022/09/27 08:30:35;;;;;;;2.63;0.85;;;12.10;99.90;;;;;;6059797;23;20034;-83
2022/09/27 08:33:02;;;;;;;1.77;0.70;;;12.20;99.90;;;;;;6081675;23;20100;-82
2022/09/27 08:35:30;;;;;;;1.58;0.75;;;12.20;99.90;;;;;;6082988;23;20372;-83
2022/09/27 08:37:59;;;;;;;2.33;0.70;;;12.30;99.90;;;;;;6058610;23;20460;-83
2022/09/27 08:40:54;;;;;;;1.23;0.90;;;12.40;99.90;;;;;;6060639;23;20026;-83
2022/09/27 08:43:44;;;;;;;1.85;0.95;;;12.50;99.90;;;;;;6072277;23;20298;-83
2022/09/27 08:46:37;;;;;;;4.00;1.15;;;12.60;99.90;;;;;;6108660;23;20466;-82
2022/09/27 08:49:08;;;;;;;4.07;1.23;;;12.70;99.90;;;;;;6059152;23;20025;-83
2022/09/27 08:51:35;;;;;;;3.25;1.20;;;12.80;99.90;;;;;;6083622;23;20056;-82
2022/09/27 08:54:24;;;;;;;3.55;1.20;;;12.90;99.90;;;;;;6059227;23;20034;-83
2022/09/27 08:56:52;;;;;;;4.75;1.17;;;12.90;99.90;;;;;;6082755;23;20352;-83
2022/09/27 08:59:21;;;;;;;2.35;0.85;;;12.90;99.90;;;;;;6083389;23;20026;-83
2022/09/27 09:01:49;;;;;;;4.20;1.20;;;12.90;99.90;;;;;;6082260;23;20109;-82
2022/09/27 09:04:28;;;;;;;2.25;1.00;;;13.00;99.90;;;;;;6083917;23;20171;-83
2022/09/27 09:07:07;;;;;;;4.32;0.98;;;13.10;99.90;;;;;;6084819;23;20533;-82
2022/09/27 09:09:39;;;;;;;2.83;1.17;;;13.10;99.90;;;;;;6084550;23;20032;-82
2022/09/27 09:12:47;;;;;;;5.20;1.80;;;13.20;99.90;;;;;;6084748;23;20050;-82
2022/09/27 09:15:19;;;;;;;3.63;1.80;;;13.20;99.90;;;;;;6067415;23;20478;-82
2022/09/27 09:17:52;;;;;;;2.92;1.23;;;13.30;99.90;;;;;;6060752;23;20516;-82
2022/09/27 09:20:55;;;;;;;6.20;2.63;;;13.40;99.90;;;;;;6084113;23;20081;-82
2022/09/27 09:23:36;;;;;;;5.68;1.70;;;13.50;99.90;;;;;;6059833;23;20459;-83
2022/09/27 09:26:28;;;;;;;5.00;1.63;;;13.40;99.90;;;;;;6089797;23;20049;-83
2022/09/27 09:29:05;;;;;;;5.07;1.30;;;13.50;99.90;;;;;;6085939;23;20100;-83
2022/09/27 09:31:45;;;;;;;2.78;1.17;;;13.50;99.90;;;;;;6083821;23;20438;-82
2022/09/27 09:34:14;;;;;;;3.13;1.48;;;13.50;99.90;;;;;;6083719;23;20080;-82
2022/09/27 09:36:58;;;;;;;6.30;1.90;;;13.60;99.90;;;;;;6084281;23;20110;-82
2022/09/27 09:39:29;;;;;;;4.90;1.70;;;13.60;99.90;;;;;;6084400;23;20068;-82
2022/09/27 09:42:05;;;;;;;4.65;1.60;;;13.50;99.90;;;;;;6084402;23;20030;-82
2022/09/27 09:45:09;;;;;;;4.05;1.63;;;13.60;99.90;;;;;;6062569;23;20354;-82
2022/09/27 09:47:37;;;;;;;;;;;13.70;99.90;;;;;;6110416;23;20433;-82
2022/09/27 09:50:13;;;;;;;4.05;1.10;;;13.80;99.90;;;;;;6060383;23;19940;-82
2022/09/27 09:52:42;;;;;;;4.25;1.63;;;13.80;99.90;;;;;;6084248;23;20026;-82
2022/09/27 09:55:17;;;;;;;3.90;1.80;;;13.80;99.90;;;;;;6113897;23;20018;-82
2022/09/27 09:58:21;;;;;;;4.30;1.30;;;13.70;99.90;;;;;;6064384;23;20022;-81
2022/09/27 10:00:49;;;;;;;2.78;1.20;;;13.70;99.90;;;;;;6118271;23;20472;-82
2022/09/27 10:03:16;;;;;;;3.00;0.98;;;13.60;99.90;;;;;;6091473;23;20497;-82
2022/09/27 10:05:44;;;;;;;2.88;1.42;;;13.50;99.90;;;;;;6092298;23;20136;-82
2022/09/27 10:08:21;;;;;;;3.25;1.25;;;13.40;99.90;;;;;;6067433;23;20025;-81
2022/09/27 10:10:47;;;;;;;3.15;1.00;;;13.40;99.90;;;;;;6092383;23;20017;-81
2022/09/27 10:13:16;;;;;;;3.30;1.27;;;13.40;99.90;;;;;;6091857;23;20100;-82
2022/09/27 10:15:46;;;;;;;3.33;1.00;;;13.60;99.90;;;;;;6091940;23;20041;-82
2022/09/27 10:18:15;;;;;;;3.65;1.48;;;13.70;99.90;;;;;;6062946;23;20032;-82
2022/09/27 10:20:48;;;;;;;3.47;1.20;;;13.90;99.90;;;;;;6063218;23;20105;-82
2022/09/27 10:23:19;;;;;;;3.70;1.40;;;13.90;99.90;;;;;;6089608;23;20445;-82
2022/09/27 10:25:53;;;;;;;5.15;1.33;;;13.90;99.90;;;;;;6088707;23;20030;-82
2022/09/27 10:28:26;;;;;;;2.72;1.15;;;13.90;99.90;;;;;;6064772;23;20018;-81
2022/09/27 10:30:56;;;;;;;3.45;0.98;;;14.00;99.90;;;;;;6092018;23;20022;-82
2022/09/27 10:33:23;;;;;;;2.63;1.33;;;14.10;99.90;;;;;;6064581;23;20018;-82
2022/09/27 10:35:50;;;;;;;3.30;1.25;;;14.30;99.90;;;;;;6063750;23;20061;-82
2022/09/27 10:38:32;;;;;;;3.08;1.40;;;14.50;99.90;;;;;;6086893;23;20161;-81
2022/09/27 10:41:20;;;;;;;4.53;1.27;;;14.50;99.90;;;;;;6068222;23;20335;-82
2022/09/27 10:43:47;;;;;;;4.10;1.92;;;14.60;99.90;;;;;;6067245;23;20098;-81
2022/09/27 10:46:25;;;;;;;5.45;1.52;;;14.70;99.90;;;;;;6091177;23;20101;-82
2022/09/27 10:49:37;;;;;;;2.22;1.27;;;14.90;99.90;;;;;;6068118;23;20048;-81
2022/09/27 10:52:18;;;;;;;2.45;1.20;;;15.00;99.90;;;;;;6084935;23;20021;-81
2022/09/27 10:54:55;;;;;;;4.18;1.67;;;14.90;99.90;;;;;;6067922;23;20017;-82
2022/09/27 10:57:27;;;;;;;5.35;1.50;;;14.80;99.90;;;;;;6067608;23;20033;-82
2022/09/27 11:00:02;;;;;;;4.88;2.50;;;14.80;99.90;;;;;;6091827;23;20029;-82
2022/09/27 11:02:33;;;;;;;3.78;1.35;;;14.70;99.90;;;;;;6089998;23;20517;-82
2022/09/27 11:05:28;;;;;;;4.57;1.60;;;14.60;99.90;;;;;;6091110;23;20072;-82
2022/09/27 11:08:01;;;;;;;2.95;1.30;;;14.50;99.90;;;;;;6089659;23;20049;-82
2022/09/27 11:10:30;;;;;;;2.72;1.40;;;14.70;99.90;;;;;;6092629;23;20018;-82
2022/09/27 11:13:18;;;;;;;1.85;0.80;;;14.90;99.90;;;;;;6069270;23;20523;-82
2022/09/27 11:16:18;;;;;;;3.07;1.37;;;14.90;99.90;;;;;;6067984;23;20030;-82
2022/09/27 11:18:48;;;;;;;4.05;1.35;;;14.80;99.90;;;;;;6068275;23;20394;-82
2022/09/27 11:21:31;;;;;;;4.65;1.63;;;14.80;99.90;;;;;;6089852;23;20041;-82
2022/09/27 11:24:09;;;;;;;2.90;1.50;;;14.60;99.90;;;;;;6088363;23;20026;-82
2022/09/27 11:26:51;;;;;;;2.92;1.13;;;14.60;99.90;;;;;;6112705;23;20101;-82
2022/09/27 11:29:51;;;;;;;1.10;0.60;;;14.50;99.90;;;;;;6090995;23;20029;-82
2022/09/27 11:32:29;;;;;;;2.22;1.02;;;14.60;99.90;;;;;;6090200;23;20033;-82
2022/09/27 11:34:56;;;;;;;2.00;1.08;;;14.40;99.90;;;;;;6090916;23;20026;-82
2022/09/27 11:37:59;;;;;;;4.00;1.42;;;14.20;99.90;;;;;;6090519;23;20049;-85
2022/09/27 11:40:59;;;;;;;2.83;1.30;;;13.50;99.90;;;;;;6074102;23;20101;-79
2022/09/27 11:43:57;;;;;;;3.38;1.27;;;12.90;99.90;;;;;;6116447;23;20032;-79
2022/09/27 11:46:38;;;;;;;3.38;1.20;;;12.20;99.90;;;;;;6117771;23;20018;-86
2022/09/27 11:49:11;;;;;;;4.38;1.30;;;11.90;99.90;;;;;;6095832;23;20418;-88
2022/09/27 11:52:03;;;;;;;3.90;1.02;;;11.80;99.90;;;;;;6094975;23;20351;-87
2022/09/27 11:54:46;;;;;;;4.13;1.40;;;11.60;99.90;;;;;;6095828;23;20056;-87
2022/09/27 11:57:34;;;;;;;2.13;0.80;;;11.60;99.90;;;;;;6119436;23;20026;-86
2022/09/27 12:00:15;;;;;;;2.22;1.10;;;11.60;99.90;;;;;;6072801;23;20051;-87
2022/09/27 12:03:07;;;;;;;2.38;0.90;;;11.70;99.90;;;;;;6068767;23;20092;-86
2022/09/27 12:05:42;;;;;;;1.85;0.90;;;11.70;99.90;;;;;;6069520;23;20026;-87
2022/09/27 12:08:17;;;;;;;4.22;1.17;;;11.80;99.90;;;;;;6094034;23;20053;-89
2022/09/27 12:10:48;;;;;;;2.30;0.90;;;11.80;99.90;;;;;;6071396;23;20033;-88
2022/09/27 12:13:16;;;;;;;1.27;0.63;;;11.80;99.90;;;;;;6070584;23;20180;-87
2022/09/27 12:15:45;;;;;;;1.55;0.75;;;11.80;99.90;;;;;;6068309;23;20026;-87
2022/09/27 12:18:48;;;;;;;2.65;0.73;;;11.90;99.90;;;;;;6093004;23;20104;-87
2022/09/27 12:21:18;;;;;;;2.80;0.80;;;12.10;99.90;;;;;;6098803;23;20358;-86
2022/09/27 12:23:56;;;;;;;2.28;0.75;;;12.20;99.90;;;;;;6066676;23;20033;-87
2022/09/27 12:26:40;;;;;;;2.85;0.93;;;12.40;99.90;;;;;;6066866;23;20101;-86
2022/09/27 12:29:14;;;;;;;;;;;12.40;99.90;;;;;;6092266;23;20026;-85
2022/09/27 12:32:06;;;;;;;1.33;0.82;;;12.30;99.90;;;;;;6069175;23;19967;-87
2022/09/27 12:34:47;;;;;;;2.70;0.90;;;12.30;99.90;;;;;;6091803;23;20033;-86
2022/09/27 12:37:27;;;;;;;2.40;0.70;;;12.30;99.90;;;;;;6092641;23;20018;-85
2022/09/27 12:40:17;;;;;;;1.63;0.80;;;12.40;99.90;;;;;;6093801;23;20021;-85
2022/09/27 12:43:01;;;;;;;1.60;0.65;;;12.60;99.90;;;;;;6093651;23;20033;-85
2022/09/27 12:45:38;;;;;;;0.95;0.55;;;12.80;99.90;;;;;;6120272;23;20109;-85
2022/09/27 12:48:18;;;;;;;1.67;0.70;;;12.90;99.90;;;;;;6069468;23;20022;-84
2022/09/27 12:51:15;;;;;;;1.98;0.70;;;12.90;99.90;;;;;;6069903;23;20093;-85
2022/09/27 12:53:59;;;;;;;0.85;0.70;;;12.90;99.90;;;;;;6118922;23;20029;-85
2022/09/27 12:56:35;;;;;;;1.38;0.70;;;12.90;99.90;;;;;;6070505;23;20025;-85
2022/09/27 12:59:10;;;;;;;2.63;1.00;;;12.70;99.90;;;;;;6094304;23;20040;-85
2022/09/27 13:01:50;;;;;;;1.92;1.00;;;12.70;99.90;;;;;;6069459;23;20065;-84
2022/09/27 13:04:33;;;;;;;1.65;0.65;;;12.70;99.90;;;;;;6119283;23;20097;-85
2022/09/27 13:07:26;;;;;;;1.52;0.57;;;12.70;99.90;;;;;;6093635;23;20049;-85
2022/09/27 13:10:02;;;;;;;0.93;0.50;;;12.90;99.90;;;;;;6118413;23;20014;-84
2022/09/27 13:12:30;;;;;;;1.73;0.60;;;13.20;99.90;;;;;;6093581;23;20452;-84
2022/09/27 13:15:02;;;;;;;1.77;0.82;;;13.20;99.90;;;;;;6069599;23;20105;-84
2022/09/27 13:17:43;;;;;;;2.38;1.08;;;13.20;99.90;;;;;;6093407;23;20030;-84
2022/09/27 13:20:34;;;;;;;2.42;0.70;;;13.40;99.90;;;;;;6117950;23;20407;-84
2022/09/27 13:23:19;;;;;;;1.33;0.52;;;13.50;99.90;;;;;;6067396;23;20022;-84
2022/09/27 13:25:46;;;;;;;1.60;0.65;;;13.70;99.90;;;;;;6115311;23;20470;-85
2022/09/27 13:28:28;;;;;;;1.98;0.90;;;13.80;99.90;;;;;;6091232;23;20021;-85